Abbott, Arkansas
Current Conditions -  °F | °C
As of 3:35 PM on Thursday 23 Oct 2014 (Local Time) from KRKR Reporting Station
Overcast Overcast  
Wind Chill: 68°   Ceiling: 7000
Heat Index: 68°   Visibility: 10mi
Dew Point: 49°   Wind: 0mph
Humidity: 50%   Direction: NA
Pressure: 30.11"   Gusts: NA
Location:  35.0213°N, 94.2023°W
Report Text: KRKR 232035Z AUTO 00000KT 10SM BKN070 BKN090 OVC120 20/09 A3011 RMK AO2 T02020094
Loading
Personal Weather Stations






























Interactive Weather Map
Tropical Storm Tracking
New forecast layout! Learn more

10-Day Weather Forecast

Advertisements
Track Severe Weather on mobile